Time;durP1;ratioP1;P1;durP2;ratioP2;P2;SDS_P1;SDS_P2;PMS_P1;PMS_P2;Temp;Humidity;BMP_temperature;BMP_pressure;BME280_temperature;BME280_humidity;BME280_pressure;Samples;Min_cycle;Max_cycle;Signal;HPM_P1;HPM_P2
2024/01/31 00:00:56;;;;;;;15.25;7.38;;;1.90;55.20;;;;;;4865912;28;115425;-81
2024/01/31 00:03:23;;;;;;;15.80;8.38;;;1.90;55.00;;;;;;4865566;28;114986;-81
2024/01/31 00:05:51;;;;;;;15.80;7.13;;;2.00;54.90;;;;;;4864376;28;114334;-80
2024/01/31 00:08:18;;;;;;;14.98;7.57;;;2.00;54.80;;;;;;4847579;28;114678;-80
2024/01/31 00:10:49;;;;;;;15.65;8.35;;;2.00;54.80;;;;;;4829855;29;115357;-81
2024/01/31 00:13:17;;;;;;;22.20;9.45;;;2.00;54.90;;;;;;4846484;28;115301;-81
2024/01/31 00:15:44;;;;;;;17.17;8.80;;;2.10;54.70;;;;;;4846303;29;114427;-81
2024/01/31 00:18:11;;;;;;;20.08;7.55;;;2.10;54.70;;;;;;4847409;28;114429;-80
2024/01/31 00:20:39;;;;;;;18.92;8.75;;;2.10;54.60;;;;;;4845553;29;115121;-80
2024/01/31 00:23:07;;;;;;;18.80;9.15;;;2.10;54.70;;;;;;4845897;29;114690;-80
2024/01/31 00:25:35;;;;;;;20.13;10.27;;;2.10;54.70;;;;;;4846878;29;114446;-81
2024/01/31 00:28:02;;;;;;;22.50;10.75;;;2.10;55.00;;;;;;4846698;28;114687;-80
2024/01/31 00:30:30;;;;;;;17.98;9.45;;;2.10;54.80;;;;;;4846068;29;115184;-80
2024/01/31 00:32:57;;;;;;;21.67;10.02;;;2.10;54.70;;;;;;4829652;29;115465;-80
2024/01/31 00:35:24;;;;;;;20.05;10.05;;;2.10;54.40;;;;;;4846133;28;114720;-81
2024/01/31 00:37:53;;;;;;;19.13;9.90;;;2.10;54.60;;;;;;4861765;28;114377;-80
2024/01/31 00:40:20;;;;;;;19.55;9.73;;;2.10;54.70;;;;;;4829936;29;115359;-81
2024/01/31 00:42:47;;;;;;;21.45;10.80;;;2.20;54.70;;;;;;4845981;29;115676;-81
2024/01/31 00:45:15;;;;;;;21.75;9.90;;;2.10;54.60;;;;;;4861574;28;115370;-81
2024/01/31 00:47:47;;;;;;;20.08;9.35;;;2.10;54.70;;;;;;4846329;29;114702;-82
2024/01/31 00:50:17;;;;;;;20.00;10.25;;;2.10;54.80;;;;;;4845810;28;118213;-82
2024/01/31 00:52:45;;;;;;;18.90;10.13;;;2.10;54.80;;;;;;4860884;28;115538;-83
2024/01/31 00:55:12;;;;;;;20.23;10.30;;;2.10;54.90;;;;;;4861030;28;114974;-82
2024/01/31 00:57:40;;;;;;;21.70;10.75;;;2.00;54.70;;;;;;4846751;29;115211;-82
2024/01/31 01:00:11;;;;;;;22.58;11.75;;;2.10;54.70;;;;;;4844548;29;115622;-82
2024/01/31 01:02:42;;;;;;;25.30;10.43;;;2.10;54.60;;;;;;4845585;29;115798;-81
2024/01/31 01:05:10;;;;;;;19.52;9.63;;;2.10;54.60;;;;;;4851675;28;114723;-83
2024/01/31 01:07:40;;;;;;;22.02;9.77;;;2.00;54.50;;;;;;4850192;28;114902;-79
2024/01/31 01:10:15;;;;;;;17.15;9.50;;;2.00;54.50;;;;;;4862532;29;114187;-83
2024/01/31 01:12:42;;;;;;;;;;;2.00;54.60;;;;;;4852965;28;114347;-81
2024/01/31 01:15:10;;;;;;;17.17;8.57;;;1.90;54.60;;;;;;4845431;29;114732;-82
2024/01/31 01:17:43;;;;;;;17.35;8.43;;;1.90;54.80;;;;;;4861335;28;114999;-82
2024/01/31 01:20:10;;;;;;;16.45;8.48;;;1.90;54.80;;;;;;4845540;29;115747;-82
2024/01/31 01:22:38;;;;;;;17.48;9.30;;;2.00;54.80;;;;;;4835675;29;115923;-80
2024/01/31 01:25:06;;;;;;;14.63;7.72;;;2.00;54.90;;;;;;4852593;28;114672;-81
2024/01/31 01:27:34;;;;;;;16.15;8.73;;;2.00;54.90;;;;;;4849575;29;114511;-80
2024/01/31 01:30:02;;;;;;;12.60;7.53;;;1.90;54.90;;;;;;4849206;29;115240;-80
2024/01/31 01:32:31;;;;;;;14.30;7.72;;;2.00;54.90;;;;;;4847665;29;116087;-80
2024/01/31 01:34:58;;;;;;;17.48;9.18;;;2.00;55.00;;;;;;4848399;29;114721;-80
2024/01/31 01:37:28;;;;;;;16.33;8.50;;;2.00;54.90;;;;;;4849182;28;114525;-80
2024/01/31 01:40:00;;;;;;;21.10;7.97;;;2.00;54.90;;;;;;4847797;29;115735;-80
2024/01/31 01:42:28;;;;;;;17.08;9.18;;;2.00;55.00;;;;;;4848814;29;114955;-80
2024/01/31 01:44:58;;;;;;;18.88;9.23;;;2.00;55.20;;;;;;4832678;28;114568;-81
2024/01/31 01:47:27;;;;;;;17.90;8.68;;;2.10;55.20;;;;;;4833033;29;115168;-80
2024/01/31 01:49:54;;;;;;;17.17;8.00;;;2.10;55.20;;;;;;4832272;28;115585;-81
2024/01/31 01:52:21;;;;;;;15.65;8.90;;;2.10;55.30;;;;;;4863308;28;115009;-80
2024/01/31 01:54:49;;;;;;;17.67;9.00;;;2.10;55.30;;;;;;4863683;28;114703;-81
2024/01/31 01:57:16;;;;;;;17.58;9.57;;;2.20;55.30;;;;;;4848313;29;114841;-81
2024/01/31 01:59:43;;;;;;;18.13;9.63;;;2.20;55.30;;;;;;4832099;29;115094;-80
2024/01/31 02:02:11;;;;;;;20.55;9.57;;;2.20;55.50;;;;;;4847927;29;114751;-81
2024/01/31 02:04:38;;;;;;;18.05;10.30;;;2.20;55.50;;;;;;4864108;28;114748;-81
2024/01/31 02:07:06;;;;;;;16.90;9.30;;;2.20;55.80;;;;;;4849340;29;114684;-81
2024/01/31 02:09:33;;;;;;;17.08;9.02;;;2.20;55.60;;;;;;4848051;29;115579;-81
2024/01/31 02:12:01;;;;;;;17.33;9.45;;;2.20;55.50;;;;;;4847332;29;115278;-80
2024/01/31 02:14:28;;;;;;;16.40;9.32;;;2.10;55.50;;;;;;4848156;29;114740;-81
2024/01/31 02:16:57;;;;;;;18.83;9.48;;;2.10;55.50;;;;;;4849221;28;114623;-81
2024/01/31 02:19:24;;;;;;;18.88;9.25;;;2.10;55.60;;;;;;4847273;29;115014;-81
2024/01/31 02:21:52;;;;;;;19.83;10.05;;;2.20;55.70;;;;;;4848444;29;114670;-81
2024/01/31 02:24:19;;;;;;;19.95;10.25;;;2.20;55.80;;;;;;4847948;29;115264;-81
2024/01/31 02:26:47;;;;;;;18.10;10.40;;;2.20;55.80;;;;;;4849336;28;114552;-81
2024/01/31 02:29:14;;;;;;;22.02;11.63;;;2.20;55.90;;;;;;4862485;28;117908;-81
2024/01/31 02:31:41;;;;;;;17.85;10.07;;;2.20;55.80;;;;;;4846978;29;117877;-80
2024/01/31 02:34:09;;;;;;;22.60;9.77;;;2.20;55.90;;;;;;4847071;29;114667;-81
2024/01/31 02:36:36;;;;;;;24.50;10.70;;;2.20;55.90;;;;;;4847823;29;114620;-81
2024/01/31 02:39:05;;;;;;;20.40;10.40;;;2.20;55.90;;;;;;4862475;28;115685;-81
2024/01/31 02:41:32;;;;;;;21.10;10.85;;;2.20;55.90;;;;;;4848751;29;114761;-80
2024/01/31 02:44:00;;;;;;;18.25;10.23;;;2.20;55.90;;;;;;4876013;28;114714;-81
2024/01/31 02:46:27;;;;;;;18.63;10.00;;;2.20;55.80;;;;;;4887035;28;114679;-81
2024/01/31 02:48:55;;;;;;;20.20;9.88;;;2.10;56.00;;;;;;4886754;28;115377;-80
2024/01/31 02:51:22;;;;;;;20.20;10.25;;;2.10;56.20;;;;;;4884922;28;114631;-81
2024/01/31 02:53:50;;;;;;;16.02;8.13;;;2.20;56.10;;;;;;4885459;28;114650;-80
2024/01/31 02:56:19;;;;;;;17.48;8.43;;;2.10;55.90;;;;;;4869908;28;114432;-81
2024/01/31 02:58:48;;;;;;;17.55;10.55;;;2.10;56.00;;;;;;4885302;28;115144;-81
2024/01/31 03:01:15;;;;;;;17.55;9.85;;;2.00;56.10;;;;;;4885676;28;114560;-81
2024/01/31 03:03:43;;;;;;;20.20;9.68;;;2.00;56.20;;;;;;4886509;28;114906;-80
2024/01/31 03:06:10;;;;;;;19.17;9.77;;;2.00;56.20;;;;;;4886207;28;114533;-82
2024/01/31 03:08:38;;;;;;;17.70;10.02;;;2.10;56.30;;;;;;4849202;28;115141;-80
2024/01/31 03:11:05;;;;;;;19.33;10.40;;;2.10;56.40;;;;;;4866473;28;114740;-81
2024/01/31 03:13:33;;;;;;;17.90;10.70;;;2.10;56.50;;;;;;4850119;28;114567;-82
2024/01/31 03:16:01;;;;;;;21.50;10.75;;;2.10;56.50;;;;;;4866489;28;114511;-81
2024/01/31 03:18:29;;;;;;;19.45;10.80;;;2.10;56.50;;;;;;4865167;28;115225;-82
2024/01/31 03:20:56;;;;;;;21.77;11.05;;;2.10;56.60;;;;;;4865297;28;114624;-81
2024/01/31 03:23:24;;;;;;;23.73;11.27;;;2.20;56.60;;;;;;4849716;28;114516;-81
2024/01/31 03:25:51;;;;;;;19.20;11.57;;;2.20;56.70;;;;;;4850000;28;114510;-81
2024/01/31 03:28:20;;;;;;;23.80;11.70;;;2.20;56.80;;;;;;4866039;28;115842;-82
2024/01/31 03:30:47;;;;;;;22.42;11.40;;;2.20;56.70;;;;;;4865030;28;114871;-82
2024/01/31 03:33:15;;;;;;;21.58;11.95;;;2.20;56.90;;;;;;4881687;28;115331;-82
2024/01/31 03:35:42;;;;;;;24.33;11.88;;;2.20;56.90;;;;;;4865651;28;114706;-81
2024/01/31 03:38:10;;;;;;;22.58;11.23;;;2.20;56.90;;;;;;4866218;28;115444;-81
2024/01/31 03:40:38;;;;;;;19.90;10.38;;;2.20;56.90;;;;;;4865339;28;114868;-81
2024/01/31 03:43:06;;;;;;;21.02;10.32;;;2.20;56.70;;;;;;4865549;28;114434;-81
2024/01/31 03:45:36;;;;;;;18.27;9.80;;;2.20;56.70;;;;;;4864865;28;114753;-81
2024/01/31 03:48:03;;;;;;;17.35;9.73;;;2.20;56.80;;;;;;4865712;28;115377;-81
2024/01/31 03:50:31;;;;;;;24.13;11.40;;;2.20;56.90;;;;;;4866036;28;114817;-81
2024/01/31 03:52:58;;;;;;;19.88;11.00;;;2.20;56.80;;;;;;4865449;28;114360;-80
2024/01/31 03:55:26;;;;;;;18.75;9.65;;;2.20;56.90;;;;;;4866608;28;114354;-81
2024/01/31 03:57:53;;;;;;;19.23;9.80;;;2.10;56.90;;;;;;4864871;28;115273;-81
2024/01/31 04:00:21;;;;;;;18.98;9.93;;;2.20;56.90;;;;;;4864869;28;114579;-81
2024/01/31 04:02:48;;;;;;;17.58;10.18;;;2.10;56.90;;;;;;4865298;28;114651;-82
2024/01/31 04:05:16;;;;;;;18.83;10.48;;;2.10;56.90;;;;;;4866728;28;114707;-82
2024/01/31 04:07:44;;;;;;;18.83;9.15;;;2.10;57.00;;;;;;4865583;28;115824;-82
2024/01/31 04:10:14;;;;;;;17.15;9.20;;;2.00;57.00;;;;;;4864495;28;114761;-82
2024/01/31 04:12:41;;;;;;;16.55;9.48;;;2.00;57.10;;;;;;4864865;28;114644;-81
2024/01/31 04:15:09;;;;;;;18.20;9.02;;;2.00;57.10;;;;;;4864963;28;114619;-81
2024/01/31 04:17:36;;;;;;;18.73;9.70;;;2.00;57.20;;;;;;4865788;28;115234;-80
2024/01/31 04:20:04;;;;;;;22.02;11.13;;;2.00;57.30;;;;;;4865810;28;114587;-81
2024/01/31 04:22:32;;;;;;;21.52;10.88;;;2.00;57.40;;;;;;4875829;28;114486;-81
2024/01/31 04:24:59;;;;;;;21.88;11.38;;;2.10;57.30;;;;;;4871631;28;115093;-81
2024/01/31 04:27:27;;;;;;;23.05;11.32;;;2.10;57.40;;;;;;4879825;28;115991;-81
2024/01/31 04:29:54;;;;;;;25.67;11.65;;;2.10;57.30;;;;;;4880258;28;114689;-81
2024/01/31 04:32:24;;;;;;;19.60;10.55;;;2.10;57.40;;;;;;4866329;28;114550;-81
2024/01/31 04:34:51;;;;;;;23.27;10.93;;;2.10;57.40;;;;;;4865959;28;114381;-81
2024/01/31 04:37:19;;;;;;;17.08;9.52;;;2.10;57.40;;;;;;4848164;28;115344;-81
2024/01/31 04:39:51;;;;;;;18.95;10.43;;;2.10;57.40;;;;;;4848394;28;115128;-81
2024/01/31 04:42:19;;;;;;;18.80;8.93;;;2.10;57.30;;;;;;4865897;28;114647;-83
2024/01/31 04:44:46;;;;;;;20.33;11.15;;;2.10;57.40;;;;;;4864997;28;114725;-83
2024/01/31 04:47:13;;;;;;;20.80;10.23;;;2.10;57.50;;;;;;4865197;28;115143;-83
2024/01/31 04:49:41;;;;;;;21.92;11.60;;;2.10;57.70;;;;;;4865380;28;114689;-82
2024/01/31 04:52:11;;;;;;;21.17;11.52;;;2.10;57.70;;;;;;4880192;28;114458;-83
2024/01/31 04:54:44;;;;;;;22.80;12.98;;;2.20;57.80;;;;;;4865997;28;114630;-83
2024/01/31 04:57:11;;;;;;;23.50;12.25;;;2.20;57.80;;;;;;4866826;28;115049;-83
2024/01/31 04:59:42;;;;;;;24.08;12.65;;;2.20;57.80;;;;;;4867410;28;114890;-83
2024/01/31 05:02:09;;;;;;;27.17;12.88;;;2.30;57.90;;;;;;4867306;28;114779;-83
2024/01/31 05:04:37;;;;;;;22.67;13.07;;;2.30;57.80;;;;;;4867946;28;114477;-83
2024/01/31 05:07:04;;;;;;;22.95;12.57;;;2.40;57.70;;;;;;4868426;28;114902;-83
2024/01/31 05:09:32;;;;;;;23.80;13.45;;;2.40;57.60;;;;;;4866903;28;115277;-82
2024/01/31 05:11:59;;;;;;;23.30;13.10;;;2.30;57.60;;;;;;4869104;28;114561;-82
2024/01/31 05:14:27;;;;;;;27.83;13.52;;;2.40;57.60;;;;;;4883575;28;114657;-82
2024/01/31 05:16:54;;;;;;;21.77;12.65;;;2.40;57.80;;;;;;4867787;28;115889;-82
2024/01/31 05:19:22;;;;;;;25.98;13.80;;;2.40;57.70;;;;;;4868454;28;114732;-82
2024/01/31 05:21:52;;;;;;;26.20;13.60;;;2.30;57.70;;;;;;4869137;28;114409;-82
2024/01/31 05:24:20;;;;;;;25.35;13.77;;;2.30;57.80;;;;;;4867786;28;115503;-81
2024/01/31 05:26:47;;;;;;;23.35;12.65;;;2.30;57.70;;;;;;4867453;28;115368;-81
2024/01/31 05:29:15;;;;;;;22.90;13.18;;;2.30;57.60;;;;;;4866810;28;114808;-81
2024/01/31 05:31:43;;;;;;;29.83;14.95;;;2.20;57.60;;;;;;4867058;28;114725;-83
2024/01/31 05:34:11;;;;;;;23.00;12.48;;;2.30;57.70;;;;;;4868116;28;114808;-83
2024/01/31 05:36:38;;;;;;;21.63;12.65;;;2.30;57.80;;;;;;4866661;28;115132;-82
2024/01/31 05:39:05;;;;;;;26.10;14.43;;;2.30;57.90;;;;;;4835437;28;114666;-81
2024/01/31 05:41:33;;;;;;;26.40;13.52;;;2.30;58.00;;;;;;4851533;28;114406;-82
2024/01/31 05:44:00;;;;;;;29.00;16.48;;;2.30;58.20;;;;;;4868444;28;114801;-81
2024/01/31 05:46:28;;;;;;;30.88;16.02;;;2.40;58.10;;;;;;4866281;28;117412;-81
2024/01/31 05:48:57;;;;;;;29.17;16.00;;;2.40;58.20;;;;;;4882240;28;114626;-82
2024/01/31 05:51:25;;;;;;;32.03;17.08;;;2.40;58.20;;;;;;4866799;28;114954;-82
2024/01/31 05:53:52;;;;;;;28.23;15.60;;;2.50;58.20;;;;;;4868530;28;114407;-82
2024/01/31 05:56:21;;;;;;;28.88;16.10;;;2.50;58.20;;;;;;4867733;28;115409;-81
2024/01/31 05:58:49;;;;;;;32.45;16.70;;;2.50;58.30;;;;;;4851053;28;114821;-80
2024/01/31 06:01:16;;;;;;;37.00;19.48;;;2.50;58.30;;;;;;4897088;28;114581;-81
2024/01/31 06:03:44;;;;;;;46.63;21.63;;;2.50;58.40;;;;;;4875481;28;115150;-81
2024/01/31 06:06:11;;;;;;;45.10;18.67;;;2.60;58.30;;;;;;4866518;28;115079;-83
2024/01/31 06:08:39;;;;;;;35.80;16.83;;;2.60;58.30;;;;;;4867199;28;114746;-80
2024/01/31 06:11:08;;;;;;;28.90;15.68;;;2.60;58.30;;;;;;4882812;28;114756;-80
2024/01/31 06:13:36;;;;;;;28.77;15.77;;;2.60;58.20;;;;;;4866686;28;116034;-80
2024/01/31 06:16:03;;;;;;;30.92;16.27;;;2.50;58.30;;;;;;4854666;28;114561;-80
2024/01/31 06:18:34;;;;;;;29.80;16.15;;;2.50;58.30;;;;;;4854350;28;114791;-80
2024/01/31 06:21:02;;;;;;;31.13;16.83;;;2.50;58.40;;;;;;4857824;28;114363;-79
2024/01/31 06:23:30;;;;;;;27.27;15.57;;;2.60;58.40;;;;;;4858176;28;114898;-80
2024/01/31 06:26:02;;;;;;;25.85;15.43;;;2.60;58.30;;;;;;4841933;28;118656;-79
2024/01/31 06:28:30;;;;;;;28.48;15.48;;;2.60;58.30;;;;;;4856313;28;114771;-80
2024/01/31 06:31:03;;;;;;;29.95;15.98;;;2.60;58.10;;;;;;4865948;28;114601;-80
2024/01/31 06:33:35;;;;;;;25.60;15.63;;;2.60;58.10;;;;;;4870009;28;114859;-80
2024/01/31 06:36:03;;;;;;;25.73;15.45;;;2.50;58.10;;;;;;4855273;28;116448;-80
2024/01/31 06:38:30;;;;;;;28.60;15.77;;;2.50;58.20;;;;;;4873436;28;115359;-79
2024/01/31 06:40:58;;;;;;;28.90;15.52;;;2.40;58.10;;;;;;4858418;28;114511;-80
2024/01/31 06:43:26;;;;;;;28.42;16.73;;;2.40;58.20;;;;;;4865989;28;115126;-80
2024/01/31 06:45:53;;;;;;;30.77;17.23;;;2.40;58.10;;;;;;4865376;28;116420;-80
2024/01/31 06:48:21;;;;;;;30.55;16.45;;;2.30;58.30;;;;;;4863836;28;117107;-80
2024/01/31 06:50:49;;;;;;;28.23;17.15;;;2.30;58.30;;;;;;4866364;28;114802;-80
2024/01/31 06:53:17;;;;;;;35.17;18.23;;;2.30;58.40;;;;;;4866485;28;114554;-80
2024/01/31 06:55:45;;;;;;;27.75;16.13;;;2.40;58.50;;;;;;4857089;28;116607;-81
2024/01/31 06:58:13;;;;;;;30.75;15.93;;;2.30;58.70;;;;;;4844517;28;115723;-81
2024/01/31 07:00:41;;;;;;;32.47;17.65;;;2.40;59.00;;;;;;4857757;28;114519;-81
2024/01/31 07:03:08;;;;;;;31.63;18.92;;;2.40;59.00;;;;;;4856664;28;114741;-81
2024/01/31 07:05:36;;;;;;;34.65;18.80;;;2.40;58.90;;;;;;4853131;28;115039;-80
2024/01/31 07:08:03;;;;;;;34.35;17.25;;;2.60;58.90;;;;;;4838268;28;114794;-82
2024/01/31 07:10:30;;;;;;;31.52;16.92;;;2.60;58.90;;;;;;4854425;28;114559;-80
2024/01/31 07:12:58;;;;;;;33.78;18.90;;;2.60;59.00;;;;;;4840331;28;114411;-80
2024/01/31 07:15:25;;;;;;;29.35;16.45;;;2.60;58.90;;;;;;4855233;28;115248;-80
2024/01/31 07:17:53;;;;;;;29.05;16.27;;;2.70;59.00;;;;;;4872077;28;115337;-80
2024/01/31 07:20:20;;;;;;;30.75;17.60;;;2.70;58.90;;;;;;4854078;28;115178;-80
2024/01/31 07:22:50;;;;;;;33.65;19.05;;;2.80;58.90;;;;;;4855015;28;114974;-80
2024/01/31 07:25:18;;;;;;;30.70;16.48;;;2.80;58.80;;;;;;4839141;28;115635;-81
2024/01/31 07:27:45;;;;;;;28.48;16.95;;;2.80;58.60;;;;;;4855304;28;115480;-81
2024/01/31 07:30:13;;;;;;;28.20;16.52;;;2.80;58.60;;;;;;4855435;28;114629;-80
2024/01/31 07:32:40;;;;;;;32.75;17.48;;;2.90;58.70;;;;;;4857009;28;115681;-81
2024/01/31 07:35:08;;;;;;;25.45;15.02;;;3.00;58.70;;;;;;4838767;28;115686;-80
2024/01/31 07:37:36;;;;;;;30.02;15.82;;;3.00;58.80;;;;;;4837813;28;114631;-81
2024/01/31 07:40:11;;;;;;;22.80;13.45;;;3.00;58.40;;;;;;4872308;28;114620;-81
2024/01/31 07:42:38;;;;;;;26.13;15.38;;;3.10;58.50;;;;;;4869789;28;114556;-81
2024/01/31 07:45:08;;;;;;;25.88;16.08;;;3.20;58.40;;;;;;4857964;28;114545;-81
2024/01/31 07:47:38;;;;;;;25.75;15.20;;;3.20;58.20;;;;;;4858315;28;115352;-81
2024/01/31 07:50:06;;;;;;;25.42;15.43;;;3.30;58.30;;;;;;4856872;28;114518;-80
2024/01/31 07:52:34;;;;;;;28.88;16.17;;;3.30;58.10;;;;;;4855858;28;114479;-80
2024/01/31 07:55:01;;;;;;;27.48;15.90;;;3.40;58.00;;;;;;4868140;28;115088;-81
2024/01/31 07:57:30;;;;;;;26.92;15.48;;;3.40;58.70;;;;;;4857436;28;114819;-81
2024/01/31 07:59:57;;;;;;;26.15;15.60;;;3.50;59.40;;;;;;4858082;28;114924;-81
2024/01/31 08:02:27;;;;;;;31.35;16.80;;;3.50;59.50;;;;;;4862830;28;115120;-80
2024/01/31 08:04:54;;;;;;;27.13;16.92;;;3.60;60.30;;;;;;4855147;28;115181;-79
2024/01/31 08:07:22;;;;;;;36.25;18.60;;;3.60;59.40;;;;;;4856585;28;114726;-81
2024/01/31 08:09:52;;;;;;;29.02;18.02;;;3.60;58.80;;;;;;4862415;28;114667;-81
2024/01/31 08:12:21;;;;;;;33.05;18.70;;;3.60;58.20;;;;;;4855818;28;114620;-81
2024/01/31 08:14:50;;;;;;;32.45;19.27;;;3.60;57.80;;;;;;4856445;28;115161;-80
2024/01/31 08:17:18;;;;;;;35.10;19.98;;;3.60;57.90;;;;;;4861988;28;115007;-80
2024/01/31 08:19:49;;;;;;;35.10;20.02;;;3.60;57.60;;;;;;4856210;28;114771;-81
2024/01/31 08:22:16;;;;;;;40.65;21.90;;;3.60;57.70;;;;;;4843674;28;114417;-81
2024/01/31 08:24:44;;;;;;;35.20;20.77;;;3.60;57.60;;;;;;4870952;28;118038;-81
2024/01/31 08:27:13;;;;;;;35.75;21.52;;;3.70;57.50;;;;;;4858803;28;115008;-81
2024/01/31 08:29:40;;;;;;;37.10;21.75;;;3.60;57.40;;;;;;4858991;28;114642;-80
2024/01/31 08:32:08;;;;;;;34.05;18.70;;;3.70;57.40;;;;;;4857720;28;114817;-81
2024/01/31 08:34:35;;;;;;;33.67;19.42;;;3.70;57.50;;;;;;4855200;28;115093;-80
2024/01/31 08:37:03;;;;;;;32.38;17.63;;;3.80;57.40;;;;;;4856710;28;114833;-81
2024/01/31 08:39:32;;;;;;;27.85;16.48;;;3.80;57.30;;;;;;4857422;28;114969;-81
2024/01/31 08:42:00;;;;;;;33.22;18.58;;;3.90;57.40;;;;;;4836238;28;114599;-81
2024/01/31 08:44:30;;;;;;;29.52;17.45;;;4.00;57.10;;;;;;4855338;28;116377;-81
2024/01/31 08:46:58;;;;;;;31.63;18.33;;;4.00;56.80;;;;;;4830108;28;117511;-82
2024/01/31 08:49:51;;;;;;;33.42;20.50;;;4.10;56.50;;;;;;4855281;28;114830;-82
2024/01/31 08:52:18;;;;;;;34.38;20.48;;;4.10;56.30;;;;;;4839129;28;114547;-82
2024/01/31 08:54:46;;;;;;;36.30;23.10;;;4.00;56.40;;;;;;4850917;28;116643;-81
2024/01/31 08:57:14;;;;;;;40.97;21.65;;;4.00;56.40;;;;;;4851149;28;115811;-82
2024/01/31 08:59:45;;;;;;;41.83;22.35;;;4.00;56.20;;;;;;4855950;28;115303;-81
2024/01/31 09:02:12;;;;;;;35.55;20.60;;;3.90;56.40;;;;;;4871126;28;114904;-81
2024/01/31 09:04:40;;;;;;;36.17;20.38;;;4.00;56.50;;;;;;4851606;28;115103;-81
2024/01/31 09:07:07;;;;;;;39.88;23.90;;;3.90;56.70;;;;;;4860078;28;115057;-82
2024/01/31 09:09:39;;;;;;;38.78;21.73;;;4.00;56.70;;;;;;4865458;28;114610;-81
2024/01/31 09:12:07;;;;;;;34.15;19.73;;;4.00;56.70;;;;;;4859041;28;114338;-80
2024/01/31 09:14:34;;;;;;;32.90;20.02;;;4.00;56.70;;;;;;4863405;28;116362;-80
2024/01/31 09:17:02;;;;;;;36.55;18.73;;;4.10;56.70;;;;;;4863081;28;118287;-83
2024/01/31 09:19:32;;;;;;;33.70;19.33;;;4.10;56.90;;;;;;4864651;28;114993;-82
2024/01/31 09:22:03;;;;;;;38.70;21.40;;;4.20;56.90;;;;;;4868334;28;114474;-80
2024/01/31 09:24:33;;;;;;;38.63;20.15;;;4.20;56.70;;;;;;4866412;28;115331;-81
2024/01/31 09:27:01;;;;;;;34.85;20.58;;;4.20;56.70;;;;;;4862034;28;114693;-79
2024/01/31 09:29:28;;;;;;;35.72;19.75;;;4.40;56.70;;;;;;4864151;28;114786;-81
2024/01/31 09:31:56;;;;;;;29.52;16.25;;;4.40;56.40;;;;;;4863893;28;114905;-79
2024/01/31 09:34:26;;;;;;;23.42;15.45;;;4.40;56.10;;;;;;4876997;28;115233;-81
2024/01/31 09:36:55;;;;;;;27.83;16.05;;;4.40;55.90;;;;;;4853920;28;115229;-80
2024/01/31 09:39:25;;;;;;;26.10;15.07;;;4.30;56.00;;;;;;4858055;28;114550;-81
2024/01/31 09:41:56;;;;;;;22.98;14.98;;;4.30;56.00;;;;;;4834333;28;114906;-81
2024/01/31 09:44:31;;;;;;;23.02;14.25;;;4.30;55.90;;;;;;4865510;28;115210;-81
2024/01/31 09:47:01;;;;;;;23.77;14.43;;;4.40;56.00;;;;;;4866589;28;114929;-79
2024/01/31 09:49:29;;;;;;;24.60;14.98;;;4.40;56.00;;;;;;4851891;28;114823;-81
2024/01/31 09:52:03;;;;;;;25.98;15.32;;;4.50;56.00;;;;;;4853485;28;114537;-80
2024/01/31 09:54:30;;;;;;;27.57;16.23;;;4.50;56.10;;;;;;4855414;28;115945;-79
2024/01/31 09:56:58;;;;;;;30.48;17.85;;;4.70;56.20;;;;;;4868551;28;114651;-80
2024/01/31 09:59:25;;;;;;;29.33;18.75;;;4.80;56.20;;;;;;4850867;28;114737;-81
2024/01/31 10:01:53;;;;;;;33.47;19.63;;;4.90;56.10;;;;;;4850274;28;114596;-81
2024/01/31 10:04:20;;;;;;;26.95;18.00;;;5.00;55.90;;;;;;4866063;28;115160;-81
2024/01/31 10:06:50;;;;;;;31.75;19.02;;;5.00;56.00;;;;;;4869251;28;114969;-81
2024/01/31 10:09:21;;;;;;;27.35;17.80;;;5.10;55.90;;;;;;4852242;28;114551;-81
2024/01/31 10:11:48;;;;;;;27.92;18.25;;;5.10;55.90;;;;;;4860617;28;114493;-81
2024/01/31 10:14:15;;;;;;;27.05;17.90;;;5.20;55.80;;;;;;4853121;28;115371;-80
2024/01/31 10:16:43;;;;;;;27.70;18.23;;;5.20;55.70;;;;;;4865815;28;115640;-81
2024/01/31 10:19:13;;;;;;;27.60;17.23;;;5.30;55.40;;;;;;4851308;28;114502;-82
2024/01/31 10:21:41;;;;;;;30.50;18.80;;;5.30;55.20;;;;;;4866797;28;114514;-80
2024/01/31 10:24:09;;;;;;;34.90;18.73;;;5.40;55.10;;;;;;4849740;28;115146;-82
2024/01/31 10:26:37;;;;;;;30.05;17.77;;;5.40;55.00;;;;;;4834386;28;115449;-81
2024/01/31 10:29:06;;;;;;;25.77;16.58;;;5.40;55.00;;;;;;4881511;28;114441;-80
2024/01/31 10:31:37;;;;;;;29.13;18.83;;;5.50;55.00;;;;;;4866356;28;114592;-82
2024/01/31 10:34:08;;;;;;;29.23;18.33;;;5.50;54.80;;;;;;4866579;28;116261;-81
2024/01/31 10:36:37;;;;;;;28.02;18.05;;;5.50;54.60;;;;;;4850555;28;114720;-81
2024/01/31 10:39:11;;;;;;;25.48;17.15;;;5.50;54.70;;;;;;4835957;28;114923;-82
2024/01/31 10:41:42;;;;;;;27.67;17.65;;;5.50;54.60;;;;;;4852388;28;114990;-81
2024/01/31 10:44:13;;;;;;;27.58;18.48;;;5.50;54.70;;;;;;4849252;28;116989;-81
2024/01/31 10:46:45;;;;;;;28.25;17.17;;;5.60;54.70;;;;;;4835060;28;115037;-80
2024/01/31 10:49:16;;;;;;;26.10;17.42;;;5.60;54.40;;;;;;4866852;28;114492;-82
2024/01/31 10:51:50;;;;;;;25.77;18.95;;;5.60;54.50;;;;;;4865558;28;114525;-80
2024/01/31 10:54:21;;;;;;;30.10;18.50;;;5.70;54.50;;;;;;4849473;28;116574;-82
2024/01/31 10:56:49;;;;;;;29.30;18.23;;;5.70;54.30;;;;;;4833758;28;114649;-81
2024/01/31 10:59:17;;;;;;;25.55;16.70;;;5.70;54.30;;;;;;4865868;28;114836;-81
2024/01/31 11:01:59;;;;;;;26.33;18.20;;;5.70;54.40;;;;;;4867034;28;114904;-79
2024/01/31 11:04:27;;;;;;;24.85;18.13;;;5.70;54.30;;;;;;4866640;28;115511;-81
2024/01/31 11:07:03;;;;;;;31.00;18.83;;;5.60;54.20;;;;;;4865926;28;115438;-81
2024/01/31 11:09:34;;;;;;;30.05;16.98;;;5.60;54.30;;;;;;4882623;28;114448;-81
2024/01/31 11:12:03;;;;;;;34.17;19.65;;;5.60;54.10;;;;;;4869365;28;114364;-80
2024/01/31 11:14:34;;;;;;;28.38;18.15;;;5.50;54.10;;;;;;4861350;28;115125;-80
2024/01/31 11:17:12;;;;;;;28.23;18.33;;;5.50;54.20;;;;;;4852529;28;116224;-81
2024/01/31 11:19:58;;;;;;;29.83;19.25;;;5.50;54.40;;;;;;4864097;28;114893;-80
2024/01/31 11:22:25;;;;;;;26.33;17.95;;;5.50;54.20;;;;;;4863386;28;114456;-80
2024/01/31 11:24:54;;;;;;;30.35;20.60;;;5.50;54.40;;;;;;4830529;29;115133;-80
2024/01/31 11:27:24;;;;;;;30.70;20.25;;;5.50;54.40;;;;;;4830559;29;114948;-80
2024/01/31 11:29:52;;;;;;;28.60;18.80;;;5.50;54.30;;;;;;4848024;29;114396;-80
2024/01/31 11:32:21;;;;;;;29.80;19.20;;;5.40;54.40;;;;;;4831932;28;114805;-80
2024/01/31 11:35:00;;;;;;;30.45;19.05;;;5.40;54.50;;;;;;4863445;28;116380;-82
2024/01/31 11:37:28;;;;;;;29.17;18.52;;;5.40;54.70;;;;;;4880131;28;114783;-81
2024/01/31 11:39:56;;;;;;;36.45;21.35;;;5.40;54.70;;;;;;4864822;28;114400;-81
2024/01/31 11:42:24;;;;;;;32.80;19.65;;;5.30;54.70;;;;;;4866639;28;114743;-81
2024/01/31 11:44:51;;;;;;;29.25;18.88;;;5.30;54.80;;;;;;4865934;28;115209;-81
2024/01/31 11:47:19;;;;;;;32.03;21.00;;;5.40;54.90;;;;;;4865815;28;115749;-80
2024/01/31 11:49:46;;;;;;;31.40;19.95;;;5.40;54.90;;;;;;4834538;28;114645;-81
2024/01/31 11:52:16;;;;;;;30.05;19.88;;;5.30;55.00;;;;;;4866667;28;114765;-81
2024/01/31 11:54:43;;;;;;;31.25;19.70;;;5.30;55.00;;;;;;4861898;28;115095;-80
2024/01/31 11:57:13;;;;;;;32.83;21.00;;;5.20;54.90;;;;;;4860205;28;114992;-81
2024/01/31 11:59:41;;;;;;;31.90;19.55;;;5.20;55.00;;;;;;4865135;28;114442;-79
2024/01/31 12:02:09;;;;;;;32.22;21.05;;;5.20;55.00;;;;;;4864968;28;114691;-82
2024/01/31 12:04:37;;;;;;;28.48;18.88;;;5.30;55.00;;;;;;4862901;28;115073;-80
2024/01/31 12:07:08;;;;;;;29.33;18.95;;;5.30;55.10;;;;;;4880206;28;114777;-80
2024/01/31 12:09:36;;;;;;;29.10;19.90;;;5.30;55.10;;;;;;4865143;28;114691;-81
2024/01/31 12:12:04;;;;;;;32.45;19.95;;;5.30;55.20;;;;;;4849316;28;114560;-80
2024/01/31 12:14:37;;;;;;;37.15;21.60;;;5.40;55.10;;;;;;4848376;28;115596;-81
2024/01/31 12:17:04;;;;;;;38.10;22.48;;;5.40;55.10;;;;;;4865686;28;114830;-81
2024/01/31 12:19:32;;;;;;;33.85;20.08;;;5.30;55.10;;;;;;4861383;28;114625;-81
2024/01/31 12:22:00;;;;;;;35.97;21.10;;;5.30;55.30;;;;;;4866346;28;114499;-83
2024/01/31 12:24:28;;;;;;;33.30;21.65;;;5.40;55.50;;;;;;4865523;28;116159;-82
2024/01/31 12:26:57;;;;;;;35.20;22.42;;;5.40;55.60;;;;;;4844296;29;117577;-82
2024/01/31 12:29:27;;;;;;;30.83;21.63;;;5.50;55.50;;;;;;4858297;28;114620;-81
2024/01/31 12:32:18;;;;;;;32.75;21.50;;;5.50;55.50;;;;;;4865200;28;115468;-80
2024/01/31 12:34:48;;;;;;;35.28;22.27;;;5.60;55.60;;;;;;4859938;28;115042;-80